sensor_id;sensor_type;location;lat;lon;timestamp;temperature;humidity
63976;DHT22;50167;47.958;21.780;2023-02-28T00:01:13;4.93;48.53
63976;DHT22;50167;47.958;21.780;2023-02-28T00:03:40;5.36;48.47
63976;DHT22;50167;47.958;21.780;2023-02-28T00:06:07;4.84;48.98
63976;DHT22;50167;47.958;21.780;2023-02-28T00:08:36;5.39;48.90
63976;DHT22;50167;47.958;21.780;2023-02-28T00:11:04;4.95;47.51
63976;DHT22;50167;47.958;21.780;2023-02-28T00:13:31;5.21;48.70
63976;DHT22;50167;47.958;21.780;2023-02-28T00:16:13;5.11;46.91
63976;DHT22;50167;47.958;21.780;2023-02-28T00:18:41;5.43;48.11
63976;DHT22;50167;47.958;21.780;2023-02-28T00:21:08;4.91;48.59
63976;DHT22;50167;47.958;21.780;2023-02-28T00:23:35;5.14;49.12
63976;DHT22;50167;47.958;21.780;2023-02-28T00:26:01;5.16;47.95
63976;DHT22;50167;47.958;21.780;2023-02-28T00:28:28;5.24;49.23
63976;DHT22;50167;47.958;21.780;2023-02-28T00:30:55;5.07;48.58
63976;DHT22;50167;47.958;21.780;2023-02-28T00:33:23;5.12;49.71
63976;DHT22;50167;47.958;21.780;2023-02-28T00:35:49;5.10;48.79
63976;DHT22;50167;47.958;21.780;2023-02-28T00:38:16;5.18;49.36
63976;DHT22;50167;47.958;21.780;2023-02-28T00:40:42;5.12;48.57
63976;DHT22;50167;47.958;21.780;2023-02-28T00:43:08;5.14;49.57
63976;DHT22;50167;47.958;21.780;2023-02-28T00:45:34;5.10;48.65
63976;DHT22;50167;47.958;21.780;2023-02-28T00:48:00;5.19;49.08
63976;DHT22;50167;47.958;21.780;2023-02-28T00:50:27;5.07;48.73
63976;DHT22;50167;47.958;21.780;2023-02-28T00:52:53;5.38;48.42
63976;DHT22;50167;47.958;21.780;2023-02-28T00:55:19;4.95;49.27
63976;DHT22;50167;47.958;21.780;2023-02-28T00:57:45;5.39;48.70
63976;DHT22;50167;47.958;21.780;2023-02-28T01:00:13;4.97;49.17
63976;DHT22;50167;47.958;21.780;2023-02-28T01:02:39;5.31;48.96
63976;DHT22;50167;47.958;21.780;2023-02-28T01:05:06;5.07;48.74
63976;DHT22;50167;47.958;21.780;2023-02-28T01:07:33;5.19;49.58
63976;DHT22;50167;47.958;21.780;2023-02-28T01:09:59;5.07;48.93
63976;DHT22;50167;47.958;21.780;2023-02-28T01:12:25;5.33;49.36
63976;DHT22;50167;47.958;21.780;2023-02-28T01:14:51;5.01;48.91
63976;DHT22;50167;47.958;21.780;2023-02-28T01:17:17;5.36;49.26
63976;DHT22;50167;47.958;21.780;2023-02-28T01:19:43;5.11;48.49
63976;DHT22;50167;47.958;21.780;2023-02-28T01:22:09;5.18;49.56
63976;DHT22;50167;47.958;21.780;2023-02-28T01:24:37;5.21;48.08
63976;DHT22;50167;47.958;21.780;2023-02-28T01:27:03;5.14;49.42
63976;DHT22;50167;47.958;21.780;2023-02-28T01:29:30;5.25;48.23
63976;DHT22;50167;47.958;21.780;2023-02-28T01:31:56;5.15;49.50
63976;DHT22;50167;47.958;21.780;2023-02-28T01:34:24;5.28;47.46
63976;DHT22;50167;47.958;21.780;2023-02-28T01:36:51;5.18;49.63
63976;DHT22;50167;47.958;21.780;2023-02-28T01:39:17;5.28;47.29
63976;DHT22;50167;47.958;21.780;2023-02-28T01:41:44;5.15;49.49
63976;DHT22;50167;47.958;21.780;2023-02-28T01:47:18;5.39;50.02
63976;DHT22;50167;47.958;21.780;2023-02-28T01:49:44;5.11;48.95
63976;DHT22;50167;47.958;21.780;2023-02-28T01:52:12;5.41;50.98
63976;DHT22;50167;47.958;21.780;2023-02-28T01:54:41;5.08;48.46
63976;DHT22;50167;47.958;21.780;2023-02-28T01:57:12;5.39;49.47
63976;DHT22;50167;47.958;21.780;2023-02-28T01:59:43;5.12;48.61
63976;DHT22;50167;47.958;21.780;2023-02-28T02:02:16;5.39;50.41
63976;DHT22;50167;47.958;21.780;2023-02-28T02:05:00;5.14;48.82
63976;DHT22;50167;47.958;21.780;2023-02-28T02:07:25;5.33;50.21
63976;DHT22;50167;47.958;21.780;2023-02-28T02:10:03;5.25;48.32
63976;DHT22;50167;47.958;21.780;2023-02-28T02:18:29;5.43;49.11
63976;DHT22;50167;47.958;21.780;2023-02-28T02:26:55;5.11;49.58
63976;DHT22;50167;47.958;21.780;2023-02-28T02:35:52;4.98;48.01
63976;DHT22;50167;47.958;21.780;2023-02-28T02:44:02;5.32;48.65
63976;DHT22;50167;47.958;21.780;2023-02-28T02:46:37;5.22;50.05
63976;DHT22;50167;47.958;21.780;2023-02-28T02:49:06;5.19;48.46
63976;DHT22;50167;47.958;21.780;2023-02-28T02:51:34;5.31;50.53
63976;DHT22;50167;47.958;21.780;2023-02-28T02:56:34;5.35;50.38
63976;DHT22;50167;47.958;21.780;2023-02-28T02:59:05;5.04;49.35
63976;DHT22;50167;47.958;21.780;2023-02-28T03:01:33;5.31;50.84
63976;DHT22;50167;47.958;21.780;2023-02-28T03:04:15;5.12;49.03
63976;DHT22;50167;47.958;21.780;2023-02-28T03:06:37;5.41;50.11
63976;DHT22;50167;47.958;21.780;2023-02-28T03:09:03;4.98;49.83
63976;DHT22;50167;47.958;21.780;2023-02-28T03:11:31;5.29;49.42
63976;DHT22;50167;47.958;21.780;2023-02-28T03:14:40;4.98;49.71
63976;DHT22;50167;47.958;21.780;2023-02-28T03:20:15;4.84;49.86
63976;DHT22;50167;47.958;21.780;2023-02-28T03:31:19;5.10;49.15
63976;DHT22;50167;47.958;21.780;2023-02-28T03:33:36;5.15;49.23
63976;DHT22;50167;47.958;21.780;2023-02-28T03:36:12;5.28;49.71
63976;DHT22;50167;47.958;21.780;2023-02-28T03:41:45;5.28;50.48
63976;DHT22;50167;47.958;21.780;2023-02-28T03:44:12;5.16;48.08
63976;DHT22;50167;47.958;21.780;2023-02-28T03:46:50;5.21;50.94
63976;DHT22;50167;47.958;21.780;2023-02-28T03:49:21;5.08;49.19
63976;DHT22;50167;47.958;21.780;2023-02-28T03:51:49;5.35;49.09
63976;DHT22;50167;47.958;21.780;2023-02-28T03:54:22;4.94;50.02
63976;DHT22;50167;47.958;21.780;2023-02-28T03:57:18;5.47;49.47
63976;DHT22;50167;47.958;21.780;2023-02-28T03:59:52;4.86;49.84
63976;DHT22;50167;47.958;21.780;2023-02-28T04:02:18;5.41;49.04
63976;DHT22;50167;47.958;21.780;2023-02-28T04:04:44;4.98;48.16
63976;DHT22;50167;47.958;21.780;2023-02-28T04:07:12;5.47;50.01
63976;DHT22;50167;47.958;21.780;2023-02-28T04:09:39;4.98;47.82
63976;DHT22;50167;47.958;21.780;2023-02-28T04:12:05;5.56;50.83
63976;DHT22;50167;47.958;21.780;2023-02-28T04:14:32;5.01;46.81
63976;DHT22;50167;47.958;21.780;2023-02-28T04:16:58;5.58;51.46
63976;DHT22;50167;47.958;21.780;2023-02-28T04:19:24;5.07;47.02
63976;DHT22;50167;47.958;21.780;2023-02-28T04:21:53;5.32;51.01
63976;DHT22;50167;47.958;21.780;2023-02-28T04:24:25;5.18;47.13
63976;DHT22;50167;47.958;21.780;2023-02-28T04:26:55;5.28;49.37
63976;DHT22;50167;47.958;21.780;2023-02-28T04:29:27;5.22;47.14
63976;DHT22;50167;47.958;21.780;2023-02-28T04:31:55;5.25;50.64
63976;DHT22;50167;47.958;21.780;2023-02-28T04:34:25;5.28;47.11
63976;DHT22;50167;47.958;21.780;2023-02-28T04:36:53;5.25;51.43
63976;DHT22;50167;47.958;21.780;2023-02-28T04:39:22;5.39;47.41
63976;DHT22;50167;47.958;21.780;2023-02-28T04:41:48;5.08;50.80
63976;DHT22;50167;47.958;21.780;2023-02-28T04:44:15;5.42;48.38
63976;DHT22;50167;47.958;21.780;2023-02-28T04:46:42;5.07;50.56
63976;DHT22;50167;47.958;21.780;2023-02-28T04:49:11;5.38;48.35
63976;DHT22;50167;47.958;21.780;2023-02-28T04:51:39;5.18;50.35
63976;DHT22;50167;47.958;21.780;2023-02-28T04:54:05;5.38;47.95
63976;DHT22;50167;47.958;21.780;2023-02-28T04:56:32;5.10;50.31
63976;DHT22;50167;47.958;21.780;2023-02-28T04:58:58;5.49;48.20
63976;DHT22;50167;47.958;21.780;2023-02-28T05:01:33;5.07;49.61
63976;DHT22;50167;47.958;21.780;2023-02-28T05:04:03;5.29;48.42
63976;DHT22;50167;47.958;21.780;2023-02-28T05:06:33;5.14;50.20
63976;DHT22;50167;47.958;21.780;2023-02-28T05:08:59;5.22;48.48
63976;DHT22;50167;47.958;21.780;2023-02-28T05:11:32;5.15;50.43
63976;DHT22;50167;47.958;21.780;2023-02-28T05:14:03;5.08;49.13
63976;DHT22;50167;47.958;21.780;2023-02-28T05:16:30;5.35;50.95
63976;DHT22;50167;47.958;21.780;2023-02-28T05:18:56;5.16;47.62
63976;DHT22;50167;47.958;21.780;2023-02-28T05:21:36;5.29;51.13
63976;DHT22;50167;47.958;21.780;2023-02-28T05:24:11;5.21;47.66
63976;DHT22;50167;47.958;21.780;2023-02-28T05:26:41;5.38;51.52
63976;DHT22;50167;47.958;21.780;2023-02-28T05:29:07;5.15;48.05
63976;DHT22;50167;47.958;21.780;2023-02-28T05:31:34;5.29;51.11
63976;DHT22;50167;47.958;21.780;2023-02-28T05:34:01;5.22;48.45
63976;DHT22;50167;47.958;21.780;2023-02-28T05:36:30;5.10;50.45
63976;DHT22;50167;47.958;21.780;2023-02-28T05:38:57;5.15;49.39
63976;DHT22;50167;47.958;21.780;2023-02-28T05:41:23;5.15;50.63
63976;DHT22;50167;47.958;21.780;2023-02-28T05:43:49;5.19;49.27
63976;DHT22;50167;47.958;21.780;2023-02-28T05:46:16;5.15;50.71
63976;DHT22;50167;47.958;21.780;2023-02-28T05:48:46;5.28;49.02
63976;DHT22;50167;47.958;21.780;2023-02-28T05:51:12;4.95;50.64
63976;DHT22;50167;47.958;21.780;2023-02-28T05:53:39;5.35;49.55
63976;DHT22;50167;47.958;21.780;2023-02-28T05:56:05;5.04;50.35
63976;DHT22;50167;47.958;21.780;2023-02-28T05:58:31;5.18;49.88
63976;DHT22;50167;47.958;21.780;2023-02-28T06:00:59;5.28;50.17
63976;DHT22;50167;47.958;21.780;2023-02-28T06:03:29;4.95;50.16
63976;DHT22;50167;47.958;21.780;2023-02-28T06:05:55;5.21;50.64
63976;DHT22;50167;47.958;21.780;2023-02-28T06:08:21;5.00;50.53
63976;DHT22;50167;47.958;21.780;2023-02-28T06:10:47;5.38;50.36
63976;DHT22;50167;47.958;21.780;2023-02-28T06:13:13;4.91;50.79
63976;DHT22;50167;47.958;21.780;2023-02-28T06:15:40;5.42;51.02
63976;DHT22;50167;47.958;21.780;2023-02-28T06:18:06;4.91;50.55
63976;DHT22;50167;47.958;21.780;2023-02-28T06:20:33;5.04;50.71
63976;DHT22;50167;47.958;21.780;2023-02-28T06:23:00;5.25;50.04
63976;DHT22;50167;47.958;21.780;2023-02-28T06:25:27;5.05;50.56
63976;DHT22;50167;47.958;21.780;2023-02-28T06:27:54;5.10;50.25
63976;DHT22;50167;47.958;21.780;2023-02-28T06:30:21;5.35;51.15
63976;DHT22;50167;47.958;21.780;2023-02-28T06:32:49;5.16;48.45
63976;DHT22;50167;47.958;21.780;2023-02-28T06:35:16;4.98;51.32
63976;DHT22;50167;47.958;21.780;2023-02-28T06:37:42;5.32;49.92
63976;DHT22;50167;47.958;21.780;2023-02-28T06:40:10;4.83;51.47
63976;DHT22;50167;47.958;21.780;2023-02-28T06:42:39;5.33;50.40
63976;DHT22;50167;47.958;21.780;2023-02-28T06:45:06;4.87;51.34
63976;DHT22;50167;47.958;21.780;2023-02-28T06:47:36;5.22;50.98
63976;DHT22;50167;47.958;21.780;2023-02-28T06:50:04;5.14;50.59
63976;DHT22;50167;47.958;21.780;2023-02-28T06:52:31;5.33;50.99
63976;DHT22;50167;47.958;21.780;2023-02-28T06:54:57;5.18;49.68
63976;DHT22;50167;47.958;21.780;2023-02-28T06:57:31;5.25;51.13
63976;DHT22;50167;47.958;21.780;2023-02-28T06:59:59;5.15;50.20
63976;DHT22;50167;47.958;21.780;2023-02-28T07:02:27;5.42;51.30
63976;DHT22;50167;47.958;21.780;2023-02-28T07:04:53;5.04;51.38
63976;DHT22;50167;47.958;21.780;2023-02-28T07:07:20;5.39;50.84
63976;DHT22;50167;47.958;21.780;2023-02-28T07:09:46;5.15;51.82
63976;DHT22;50167;47.958;21.780;2023-02-28T07:12:12;5.32;50.90
63976;DHT22;50167;47.958;21.780;2023-02-28T07:14:39;5.08;52.07
63976;DHT22;50167;47.958;21.780;2023-02-28T07:17:08;5.50;50.20
63976;DHT22;50167;47.958;21.780;2023-02-28T07:19:34;5.11;50.62
63976;DHT22;50167;47.958;21.780;2023-02-28T07:22:00;5.56;50.09
63976;DHT22;50167;47.958;21.780;2023-02-28T07:24:28;5.05;51.56
63976;DHT22;50167;47.958;21.780;2023-02-28T07:26:55;5.65;51.56
63976;DHT22;50167;47.958;21.780;2023-02-28T07:29:21;5.19;49.63
63976;DHT22;50167;47.958;21.780;2023-02-28T07:31:48;5.60;52.58
63976;DHT22;50167;47.958;21.780;2023-02-28T07:34:16;5.38;49.85
63976;DHT22;50167;47.958;21.780;2023-02-28T07:36:42;5.32;53.15
63976;DHT22;50167;47.958;21.780;2023-02-28T07:39:08;5.67;49.89
63976;DHT22;50167;47.958;21.780;2023-02-28T07:41:35;5.12;50.05
63976;DHT22;50167;47.958;21.780;2023-02-28T07:44:03;5.65;51.87
63976;DHT22;50167;47.958;21.780;2023-02-28T07:46:29;5.21;51.71
63976;DHT22;50167;47.958;21.780;2023-02-28T07:48:57;5.62;52.33
63976;DHT22;50167;47.958;21.780;2023-02-28T07:51:25;5.29;50.37
63976;DHT22;50167;47.958;21.780;2023-02-28T07:57:50;5.25;49.50
63976;DHT22;50167;47.958;21.780;2023-02-28T08:00:16;5.58;52.43
63976;DHT22;50167;47.958;21.780;2023-02-28T08:02:43;5.28;52.43
63976;DHT22;50167;47.958;21.780;2023-02-28T08:05:09;5.52;52.61
63976;DHT22;50167;47.958;21.780;2023-02-28T08:07:35;5.41;51.77
63976;DHT22;50167;47.958;21.780;2023-02-28T08:10:02;5.22;53.07
63976;DHT22;50167;47.958;21.780;2023-02-28T08:12:28;5.54;51.23
63976;DHT22;50167;47.958;21.780;2023-02-28T08:14:54;5.12;52.75
63976;DHT22;50167;47.958;21.780;2023-02-28T08:17:21;5.65;51.73
63976;DHT22;50167;47.958;21.780;2023-02-28T08:19:47;5.12;52.84
63976;DHT22;50167;47.958;21.780;2023-02-28T08:22:25;5.60;51.84
63976;DHT22;50167;47.958;21.780;2023-02-28T08:24:51;5.22;52.21
63976;DHT22;50167;47.958;21.780;2023-02-28T08:27:18;5.53;52.39
63976;DHT22;50167;47.958;21.780;2023-02-28T08:29:44;5.36;50.97
63976;DHT22;50167;47.958;21.780;2023-02-28T08:32:10;5.36;53.51
63976;DHT22;50167;47.958;21.780;2023-02-28T08:34:39;5.46;52.64
63976;DHT22;50167;47.958;21.780;2023-02-28T08:37:06;5.21;53.61
63976;DHT22;50167;47.958;21.780;2023-02-28T08:39:36;5.50;52.31
63976;DHT22;50167;47.958;21.780;2023-02-28T08:42:03;5.18;53.11
63976;DHT22;50167;47.958;21.780;2023-02-28T08:44:30;5.62;52.90
63976;DHT22;50167;47.958;21.780;2023-02-28T08:46:56;5.35;53.54
63976;DHT22;50167;47.958;21.780;2023-02-28T08:49:22;5.46;53.83
63976;DHT22;50167;47.958;21.780;2023-02-28T08:51:48;5.62;52.55
63976;DHT22;50167;47.958;21.780;2023-02-28T08:54:14;5.22;53.68
63976;DHT22;50167;47.958;21.780;2023-02-28T08:56:42;5.60;52.49
63976;DHT22;50167;47.958;21.780;2023-02-28T08:59:09;5.32;52.96
63976;DHT22;50167;47.958;21.780;2023-02-28T09:01:35;5.56;53.72
63976;DHT22;50167;47.958;21.780;2023-02-28T09:04:02;5.62;52.41
63976;DHT22;50167;47.958;21.780;2023-02-28T09:10:29;5.42;52.58
63976;DHT22;50167;47.958;21.780;2023-02-28T09:12:55;5.22;53.69
63976;DHT22;50167;47.958;21.780;2023-02-28T09:15:21;5.59;52.23
63976;DHT22;50167;47.958;21.780;2023-02-28T09:17:47;5.26;52.84
63976;DHT22;50167;47.958;21.780;2023-02-28T09:20:14;5.62;53.28
63976;DHT22;50167;47.958;21.780;2023-02-28T09:22:40;5.65;52.26
63976;DHT22;50167;47.958;21.780;2023-02-28T09:25:06;5.38;52.44
63976;DHT22;50167;47.958;21.780;2023-02-28T09:27:33;5.26;52.24
63976;DHT22;50167;47.958;21.780;2023-02-28T09:29:59;5.52;53.63
63976;DHT22;50167;47.958;21.780;2023-02-28T09:32:25;5.36;53.82
63976;DHT22;50167;47.958;21.780;2023-02-28T09:34:54;5.28;54.84
63976;DHT22;50167;47.958;21.780;2023-02-28T09:37:21;5.62;53.13
63976;DHT22;50167;47.958;21.780;2023-02-28T09:39:47;5.43;53.60
63976;DHT22;50167;47.958;21.780;2023-02-28T09:42:18;5.29;53.61
63976;DHT22;50167;47.958;21.780;2023-02-28T09:44:47;5.32;54.69
63976;DHT22;50167;47.958;21.780;2023-02-28T09:47:31;5.50;54.92
63976;DHT22;50167;47.958;21.780;2023-02-28T09:50:16;5.45;54.47
63976;DHT22;50167;47.958;21.780;2023-02-28T09:52:36;5.39;53.60
63976;DHT22;50167;47.958;21.780;2023-02-28T09:55:39;5.42;54.27
63976;DHT22;50167;47.958;21.780;2023-02-28T09:58:28;5.45;54.10
63976;DHT22;50167;47.958;21.780;2023-02-28T10:01:09;5.49;54.78
63976;DHT22;50167;47.958;21.780;2023-02-28T10:03:45;5.50;54.85
63976;DHT22;50167;47.958;21.780;2023-02-28T10:06:26;5.47;54.42
63976;DHT22;50167;47.958;21.780;2023-02-28T10:11:33;5.59;55.55
63976;DHT22;50167;47.958;21.780;2023-02-28T10:14:18;5.65;55.32
63976;DHT22;50167;47.958;21.780;2023-02-28T10:16:53;5.62;54.82
63976;DHT22;50167;47.958;21.780;2023-02-28T10:19:38;5.54;54.75
63976;DHT22;50167;47.958;21.780;2023-02-28T10:22:19;5.53;54.87
63976;DHT22;50167;47.958;21.780;2023-02-28T10:24:50;5.59;54.98
63976;DHT22;50167;47.958;21.780;2023-02-28T10:27:25;5.60;55.18
63976;DHT22;50167;47.958;21.780;2023-02-28T10:30:02;5.63;54.52
63976;DHT22;50167;47.958;21.780;2023-02-28T10:32:35;5.69;54.45
63976;DHT22;50167;47.958;21.780;2023-02-28T10:35:18;5.62;54.63
63976;DHT22;50167;47.958;21.780;2023-02-28T10:37:51;5.60;55.71
63976;DHT22;50167;47.958;21.780;2023-02-28T10:43:12;5.90;56.35
63976;DHT22;50167;47.958;21.780;2023-02-28T10:45:35;6.07;55.60
63976;DHT22;50167;47.958;21.780;2023-02-28T10:50:51;6.45;54.92
63976;DHT22;50167;47.958;21.780;2023-02-28T11:01:35;7.14;51.85
63976;DHT22;50167;47.958;21.780;2023-02-28T11:04:02;7.08;51.68
63976;DHT22;50167;47.958;21.780;2023-02-28T11:06:32;7.04;51.90
63976;DHT22;50167;47.958;21.780;2023-02-28T11:09:04;6.94;52.01
63976;DHT22;50167;47.958;21.780;2023-02-28T11:11:44;6.94;51.92
63976;DHT22;50167;47.958;21.780;2023-02-28T11:14:25;6.88;52.01
63976;DHT22;50167;47.958;21.780;2023-02-28T11:16:52;6.88;52.20
63976;DHT22;50167;47.958;21.780;2023-02-28T11:19:27;6.91;51.51
63976;DHT22;50167;47.958;21.780;2023-02-28T11:22:04;6.96;51.51
63976;DHT22;50167;47.958;21.780;2023-02-28T11:24:35;7.06;52.03
63976;DHT22;50167;47.958;21.780;2023-02-28T11:27:02;7.14;51.86
63976;DHT22;50167;47.958;21.780;2023-02-28T11:29:32;7.18;51.65
63976;DHT22;50167;47.958;21.780;2023-02-28T11:32:21;7.31;51.66
63976;DHT22;50167;47.958;21.780;2023-02-28T11:34:46;7.35;51.51
63976;DHT22;50167;47.958;21.780;2023-02-28T11:37:16;7.29;51.51
63976;DHT22;50167;47.958;21.780;2023-02-28T11:39:44;7.24;51.28
63976;DHT22;50167;47.958;21.780;2023-02-28T11:43:33;7.31;52.27
63976;DHT22;50167;47.958;21.780;2023-02-28T11:48:27;7.38;52.11
63976;DHT22;50167;47.958;21.780;2023-02-28T11:51:13;7.47;51.55
63976;DHT22;50167;47.958;21.780;2023-02-28T11:56:38;7.66;51.23
63976;DHT22;50167;47.958;21.780;2023-02-28T11:59:38;7.60;51.10
63976;DHT22;50167;47.958;21.780;2023-02-28T12:02:26;7.53;50.79
63976;DHT22;50167;47.958;21.780;2023-02-28T12:08:23;7.55;50.97
63976;DHT22;50167;47.958;21.780;2023-02-28T12:28:50;7.59;51.19
63976;DHT22;50167;47.958;21.780;2023-02-28T12:31:36;7.67;51.35
63976;DHT22;50167;47.958;21.780;2023-02-28T12:34:14;7.86;51.03
63976;DHT22;50167;47.958;21.780;2023-02-28T12:36:42;7.94;51.10
63976;DHT22;50167;47.958;21.780;2023-02-28T12:39:35;7.93;51.20
63976;DHT22;50167;47.958;21.780;2023-02-28T12:41:59;8.01;51.07
63976;DHT22;50167;47.958;21.780;2023-02-28T12:44:32;8.08;50.97
63976;DHT22;50167;47.958;21.780;2023-02-28T12:47:03;8.05;50.20
63976;DHT22;50167;47.958;21.780;2023-02-28T12:49:42;8.05;51.08
63976;DHT22;50167;47.958;21.780;2023-02-28T12:52:08;8.03;50.87
63976;DHT22;50167;47.958;21.780;2023-02-28T12:55:21;8.01;50.98
63976;DHT22;50167;47.958;21.780;2023-02-28T12:57:54;8.04;51.58
63976;DHT22;50167;47.958;21.780;2023-02-28T13:00:22;8.04;51.07
63976;DHT22;50167;47.958;21.780;2023-02-28T13:09:14;8.01;51.14
63976;DHT22;50167;47.958;21.780;2023-02-28T13:11:47;8.01;51.29
63976;DHT22;50167;47.958;21.780;2023-02-28T13:14:36;7.97;51.37
63976;DHT22;50167;47.958;21.780;2023-02-28T13:17:14;7.90;51.05
63976;DHT22;50167;47.958;21.780;2023-02-28T13:22:40;7.86;51.79
63976;DHT22;50167;47.958;21.780;2023-02-28T13:28:12;7.84;51.71
63976;DHT22;50167;47.958;21.780;2023-02-28T13:33:34;7.84;51.74
63976;DHT22;50167;47.958;21.780;2023-02-28T13:36:29;7.90;51.41
63976;DHT22;50167;47.958;21.780;2023-02-28T13:39:03;8.07;51.29
63976;DHT22;50167;47.958;21.780;2023-02-28T13:44:21;8.31;51.46
63976;DHT22;50167;47.958;21.780;2023-02-28T13:49:26;8.46;51.24
63976;DHT22;50167;47.958;21.780;2023-02-28T13:52:15;8.42;51.10
63976;DHT22;50167;47.958;21.780;2023-02-28T13:55:17;8.41;51.19
63976;DHT22;50167;47.958;21.780;2023-02-28T14:01:14;8.11;51.22
63976;DHT22;50167;47.958;21.780;2023-02-28T14:11:47;7.55;52.36
63976;DHT22;50167;47.958;21.780;2023-02-28T14:17:08;7.65;53.17
63976;DHT22;50167;47.958;21.780;2023-02-28T14:19:37;7.69;52.91
63976;DHT22;50167;47.958;21.780;2023-02-28T14:27:45;7.71;53.01
63976;DHT22;50167;47.958;21.780;2023-02-28T14:36:18;7.79;53.42
63976;DHT22;50167;47.958;21.780;2023-02-28T14:39:03;7.79;53.28
63976;DHT22;50167;47.958;21.780;2023-02-28T14:41:37;7.73;53.53
63976;DHT22;50167;47.958;21.780;2023-02-28T14:49:41;7.71;53.79
63976;DHT22;50167;47.958;21.780;2023-02-28T14:52:20;7.66;53.44
63976;DHT22;50167;47.958;21.780;2023-02-28T14:55:00;7.55;53.56
63976;DHT22;50167;47.958;21.780;2023-02-28T14:57:32;7.52;53.78
63976;DHT22;50167;47.958;21.780;2023-02-28T14:59:59;7.46;53.21
63976;DHT22;50167;47.958;21.780;2023-02-28T15:02:33;7.43;54.11
63976;DHT22;50167;47.958;21.780;2023-02-28T15:05:16;7.41;54.24
63976;DHT22;50167;47.958;21.780;2023-02-28T15:07:37;7.32;54.56
63976;DHT22;50167;47.958;21.780;2023-02-28T15:10:16;7.26;54.73
63976;DHT22;50167;47.958;21.780;2023-02-28T15:12:56;7.22;54.74
63976;DHT22;50167;47.958;21.780;2023-02-28T15:18:26;7.17;54.79
63976;DHT22;50167;47.958;21.780;2023-02-28T15:20:52;7.10;55.04
63976;DHT22;50167;47.958;21.780;2023-02-28T15:23:20;7.04;55.06
63976;DHT22;50167;47.958;21.780;2023-02-28T15:25:47;7.00;55.02
63976;DHT22;50167;47.958;21.780;2023-02-28T15:28:18;6.88;55.25
63976;DHT22;50167;47.958;21.780;2023-02-28T15:30:54;6.86;55.32
63976;DHT22;50167;47.958;21.780;2023-02-28T15:33:28;6.83;55.73
63976;DHT22;50167;47.958;21.780;2023-02-28T15:36:28;6.77;55.74
63976;DHT22;50167;47.958;21.780;2023-02-28T15:38:55;6.76;56.01
63976;DHT22;50167;47.958;21.780;2023-02-28T15:41:37;6.72;56.04
63976;DHT22;50167;47.958;21.780;2023-02-28T15:44:26;6.69;56.25
63976;DHT22;50167;47.958;21.780;2023-02-28T15:49:39;6.63;56.37
63976;DHT22;50167;47.958;21.780;2023-02-28T15:52:09;6.56;56.61
63976;DHT22;50167;47.958;21.780;2023-02-28T15:54:36;6.57;56.64
63976;DHT22;50167;47.958;21.780;2023-02-28T15:57:07;6.48;56.67
63976;DHT22;50167;47.958;21.780;2023-02-28T15:59:36;6.45;56.79
63976;DHT22;50167;47.958;21.780;2023-02-28T16:02:19;6.38;57.07
63976;DHT22;50167;47.958;21.780;2023-02-28T16:07:41;6.26;57.28
63976;DHT22;50167;47.958;21.780;2023-02-28T16:10:11;6.21;57.40
63976;DHT22;50167;47.958;21.780;2023-02-28T16:12:40;6.18;57.33
63976;DHT22;50167;47.958;21.780;2023-02-28T16:15:29;6.15;57.84
63976;DHT22;50167;47.958;21.780;2023-02-28T16:17:56;6.08;57.81
63976;DHT22;50167;47.958;21.780;2023-02-28T16:20:26;6.05;58.27
63976;DHT22;50167;47.958;21.780;2023-02-28T16:22:53;6.01;58.19
63976;DHT22;50167;47.958;21.780;2023-02-28T16:25:23;5.98;58.27
63976;DHT22;50167;47.958;21.780;2023-02-28T16:27:52;5.91;58.46
63976;DHT22;50167;47.958;21.780;2023-02-28T16:30:26;5.87;58.47
63976;DHT22;50167;47.958;21.780;2023-02-28T16:32:55;5.86;58.61
63976;DHT22;50167;47.958;21.780;2023-02-28T16:35:22;5.81;58.91
63976;DHT22;50167;47.958;21.780;2023-02-28T16:37:51;5.74;58.91
63976;DHT22;50167;47.958;21.780;2023-02-28T16:40:25;5.71;59.35
63976;DHT22;50167;47.958;21.780;2023-02-28T16:42:53;5.70;59.17
63976;DHT22;50167;47.958;21.780;2023-02-28T16:45:25;5.67;59.42
63976;DHT22;50167;47.958;21.780;2023-02-28T16:47:53;5.63;59.93
63976;DHT22;50167;47.958;21.780;2023-02-28T16:50:28;5.62;59.57
63976;DHT22;50167;47.958;21.780;2023-02-28T16:52:56;5.59;59.95
63976;DHT22;50167;47.958;21.780;2023-02-28T16:55:23;5.58;59.94
63976;DHT22;50167;47.958;21.780;2023-02-28T16:57:55;5.58;59.84
63976;DHT22;50167;47.958;21.780;2023-02-28T17:00:23;5.54;59.87
63976;DHT22;50167;47.958;21.780;2023-02-28T17:02:50;5.54;60.21
63976;DHT22;50167;47.958;21.780;2023-02-28T17:05:17;5.52;60.18
63976;DHT22;50167;47.958;21.780;2023-02-28T17:07:45;5.52;60.35
63976;DHT22;50167;47.958;21.780;2023-02-28T17:10:19;5.52;60.39
63976;DHT22;50167;47.958;21.780;2023-02-28T17:12:46;5.47;60.42
63976;DHT22;50167;47.958;21.780;2023-02-28T17:15:15;5.47;60.36
63976;DHT22;50167;47.958;21.780;2023-02-28T17:17:43;5.45;60.33
63976;DHT22;50167;47.958;21.780;2023-02-28T17:20:15;5.46;60.40
63976;DHT22;50167;47.958;21.780;2023-02-28T17:22:42;5.45;60.41
63976;DHT22;50167;47.958;21.780;2023-02-28T17:25:10;5.45;60.71
63976;DHT22;50167;47.958;21.780;2023-02-28T17:27:37;5.45;60.78
63976;DHT22;50167;47.958;21.780;2023-02-28T17:30:17;5.43;60.57
63976;DHT22;50167;47.958;21.780;2023-02-28T17:32:43;5.42;60.60
63976;DHT22;50167;47.958;21.780;2023-02-28T17:35:10;5.41;60.67
63976;DHT22;50167;47.958;21.780;2023-02-28T17:37:36;5.38;60.81
63976;DHT22;50167;47.958;21.780;2023-02-28T17:40:03;5.38;60.77
63976;DHT22;50167;47.958;21.780;2023-02-28T17:42:30;5.35;61.01
63976;DHT22;50167;47.958;21.780;2023-02-28T17:44:56;5.36;60.79
63976;DHT22;50167;47.958;21.780;2023-02-28T17:47:22;5.33;61.21
63976;DHT22;50167;47.958;21.780;2023-02-28T17:49:51;5.31;61.10
63976;DHT22;50167;47.958;21.780;2023-02-28T17:52:17;5.32;61.24
63976;DHT22;50167;47.958;21.780;2023-02-28T17:54:43;5.29;61.30
63976;DHT22;50167;47.958;21.780;2023-02-28T17:57:14;5.28;61.23
63976;DHT22;50167;47.958;21.780;2023-02-28T17:59:41;5.26;61.26
63976;DHT22;50167;47.958;21.780;2023-02-28T18:02:11;5.26;61.19
63976;DHT22;50167;47.958;21.780;2023-02-28T18:04:37;5.25;61.36
63976;DHT22;50167;47.958;21.780;2023-02-28T18:07:06;5.29;61.19
63976;DHT22;50167;47.958;21.780;2023-02-28T18:09:34;5.26;61.13
63976;DHT22;50167;47.958;21.780;2023-02-28T18:12:00;5.25;61.05
63976;DHT22;50167;47.958;21.780;2023-02-28T18:14:26;5.32;61.02
63976;DHT22;50167;47.958;21.780;2023-02-28T18:16:54;5.29;60.92
63976;DHT22;50167;47.958;21.780;2023-02-28T18:19:21;5.26;60.87
63976;DHT22;50167;47.958;21.780;2023-02-28T18:21:50;5.29;61.00
63976;DHT22;50167;47.958;21.780;2023-02-28T18:24:19;5.29;60.80
63976;DHT22;50167;47.958;21.780;2023-02-28T18:26:45;5.25;60.90